Terminal Aerodrome Forecast
Issued by NWS Charleston, WV

Current Version | Previous Version | Text Only | Print | Product List | Glossary Off
Versions: 1 2 3 4 5 6 7 8 9 10 11 12 13 14 15 16 17 18 19 20 21 22 23 24 25 26 27 28 29

017
FTUS41 KRLX 200021 AAA
TAFHTS
TAF AMD
KHTS 200021Z 2000/2024 21004KT P6SM VCTS BKN040CB
      TEMPO 2000/2002 29015G30KT 1SM TSRA BR BKN025CB
     FM200400 00000KT P6SM BKN035
     FM200600 00000KT 5SM BR BKN035
     FM201100 00000KT 2SM BR SCT015
     FM201400 00000KT P6SM SCT015
     FM201500 VRB03KT P6SM BKN025
     FM201600 VRB03KT P6SM BKN035=

USA.gov is the U.S. government's official web portal to all federal, state and local government web resources and services.